createdAt,value
2022-09-05T06:38:59.615Z,20.30
2022-09-05T06:41:37.898Z,20.30
2022-09-05T06:44:37.217Z,20.50
2022-09-05T06:47:25.982Z,20.70
2022-09-05T06:50:27.522Z,20.80
2022-09-05T06:53:36.562Z,21.00
2022-09-05T06:56:25.804Z,21.30
2022-09-05T06:59:21.450Z,21.50
2022-09-05T07:02:01.211Z,21.60
2022-09-05T07:05:24.655Z,21.70
2022-09-05T07:07:36.853Z,21.70
2022-09-05T07:10:34.672Z,21.80
2022-09-05T07:13:09.722Z,21.90
2022-09-05T07:15:47.743Z,21.90
2022-09-05T07:18:23.441Z,21.90
2022-09-05T07:21:15.969Z,22.10
2022-09-05T07:24:06.997Z,22.20
2022-09-05T07:26:51.699Z,22.40
2022-09-05T07:29:28.147Z,22.50
2022-09-05T07:31:58.402Z,22.70
2022-09-05T07:34:29.524Z,22.90
2022-09-05T07:37:13.936Z,23.00
2022-09-05T07:39:49.874Z,23.20
2022-09-05T07:42:25.518Z,23.30
2022-09-05T07:44:57.887Z,23.30
2022-09-05T07:47:29.815Z,23.30
2022-09-05T07:52:06.982Z,23.30
2022-09-05T07:56:46.876Z,23.30
2022-09-05T07:57:06.511Z,23.20
2022-09-05T07:58:41.437Z,23.20
2022-09-05T08:01:15.118Z,23.20
2022-09-05T08:03:44.342Z,23.20
2022-09-05T08:06:55.790Z,23.20
2022-09-05T08:09:21.371Z,23.20
2022-09-05T08:12:16.125Z,23.20
2022-09-05T08:14:52.803Z,23.20
2022-09-05T08:17:30.056Z,23.30
2022-09-05T08:20:20.510Z,23.40
2022-09-05T08:22:56.046Z,23.40
2022-09-05T08:25:41.532Z,23.50
2022-09-05T08:28:25.492Z,23.50
2022-09-05T08:31:11.155Z,23.50
2022-09-05T08:33:41.945Z,23.60
2022-09-05T08:36:20.142Z,23.70
2022-09-05T08:38:50.105Z,23.60
2022-09-05T08:41:49.305Z,23.60
2022-09-05T08:46:37.465Z,23.80
2022-09-05T08:47:19.824Z,23.80
2022-09-05T08:50:18.365Z,23.80
2022-09-05T08:52:58.127Z,23.90
2022-09-05T08:55:40.157Z,23.90
2022-09-05T08:58:43.622Z,24.00
2022-09-05T09:01:20.323Z,24.00
2022-09-05T09:04:14.268Z,24.10
2022-09-05T09:07:47.146Z,24.20
2022-09-05T09:10:02.703Z,24.20
2022-09-05T09:13:08.209Z,24.40
2022-09-05T09:15:39.980Z,24.60
2022-09-05T09:18:17.186Z,24.70
2022-09-05T09:20:52.809Z,24.80
2022-09-05T09:23:42.725Z,24.90
2022-09-05T09:26:17.117Z,25.10
2022-09-05T09:28:51.617Z,25.10
2022-09-05T09:31:37.370Z,25.10
2022-09-05T09:34:23.067Z,25.20
2022-09-05T09:37:44.626Z,25.20
2022-09-05T09:40:31.468Z,25.20
2022-09-05T09:43:07.299Z,25.40
2022-09-05T09:46:04.385Z,25.40
2022-09-05T09:49:23.228Z,25.50
2022-09-05T09:52:24.647Z,25.40
2022-09-05T09:55:41.069Z,25.50
2022-09-05T09:58:34.620Z,25.70
2022-09-05T10:01:36.043Z,25.70
2022-09-05T10:06:49.560Z,25.90
2022-09-05T10:10:46.164Z,26.10
2022-09-05T10:11:37.610Z,26.10
2022-09-05T10:14:36.720Z,26.20
2022-09-05T10:17:24.012Z,26.40
2022-09-05T10:20:12.376Z,26.70
2022-09-05T10:23:12.202Z,26.90
2022-09-05T10:26:10.354Z,27.30
2022-09-05T10:28:45.005Z,27.60
2022-09-05T10:33:21.271Z,27.90
2022-09-05T10:35:17.611Z,28.40
2022-09-05T10:37:07.780Z,28.70
2022-09-05T10:39:39.677Z,28.90
2022-09-05T10:42:15.113Z,28.90
2022-09-05T10:44:48.199Z,28.80
2022-09-05T10:47:34.589Z,28.80
2022-09-05T10:50:11.909Z,28.60
2022-09-05T10:52:57.693Z,28.50
2022-09-05T10:55:34.070Z,28.50
2022-09-05T10:58:15.217Z,28.40
2022-09-05T11:02:21.956Z,28.50
2022-09-05T11:03:54.770Z,28.50
2022-09-05T11:06:33.323Z,28.40
2022-09-05T11:09:12.206Z,28.40
2022-09-05T11:11:46.353Z,28.50
2022-09-05T11:14:35.908Z,28.40
2022-09-05T11:17:14.144Z,28.50
2022-09-05T11:19:49.102Z,28.70
2022-09-05T11:22:22.372Z,29.00
2022-09-05T11:24:56.741Z,29.30
2022-09-05T11:27:32.527Z,29.60
2022-09-05T11:30:06.838Z,29.70
2022-09-05T11:37:37.146Z,29.90
2022-09-05T11:39:53.050Z,30.10
2022-09-05T11:40:07.145Z,30.20
2022-09-05T11:42:24.809Z,30.30
2022-09-05T11:45:22.888Z,30.40
2022-09-05T11:48:35.809Z,30.60
2022-09-05T11:51:42.350Z,30.70
2022-09-05T11:55:08.093Z,30.60
2022-09-05T11:58:43.675Z,30.40
2022-09-05T12:01:42.194Z,30.30
2022-09-05T12:04:27.703Z,30.20
2022-09-05T12:07:31.491Z,29.90
2022-09-05T12:10:46.220Z,29.80
2022-09-05T12:13:21.798Z,29.70
2022-09-05T12:16:08.197Z,29.40
2022-09-05T12:18:45.913Z,29.30
2022-09-05T12:21:27.368Z,29.20
2022-09-05T12:24:50.029Z,29.00
2022-09-05T12:27:43.987Z,28.90
2022-09-05T12:30:00.096Z,28.80
2022-09-05T12:34:46.731Z,28.80
2022-09-05T12:36:06.558Z,28.80
2022-09-05T12:40:44.751Z,28.80
2022-09-05T12:41:45.038Z,28.80
2022-09-05T12:44:41.384Z,29.00
2022-09-05T12:47:18.920Z,29.10
2022-09-05T12:50:03.572Z,29.20
2022-09-05T12:52:46.388Z,29.20
2022-09-05T12:55:26.172Z,29.40
2022-09-05T13:03:05.943Z,29.40
2022-09-05T13:03:13.004Z,29.40
2022-09-05T13:04:15.960Z,29.20
2022-09-05T13:06:40.940Z,29.20
2022-09-05T13:09:17.726Z,29.30
2022-09-05T13:14:50.483Z,29.40
2022-09-05T13:15:22.781Z,29.40
2022-09-05T13:17:51.518Z,29.60
2022-09-05T13:20:34.954Z,29.60
2022-09-05T13:23:11.518Z,29.70
2022-09-05T13:25:43.401Z,29.60
2022-09-05T13:28:15.510Z,29.40
2022-09-05T13:33:24.030Z,29.40
2022-09-05T13:38:00.004Z,29.60
2022-09-05T13:38:07.904Z,29.50
2022-09-05T13:39:37.316Z,29.50
2022-09-05T13:42:06.067Z,29.40
2022-09-05T13:44:43.185Z,29.60
2022-09-05T13:47:29.524Z,29.70
2022-09-05T13:50:13.909Z,29.90
2022-09-05T13:52:47.321Z,30.00
2022-09-05T13:55:22.977Z,30.00
2022-09-05T13:57:56.790Z,29.90
2022-09-05T14:00:54.205Z,30.00
2022-09-05T14:03:50.507Z,30.00
2022-09-05T14:06:51.597Z,30.10
2022-09-05T14:09:44.104Z,30.20
2022-09-05T14:12:28.064Z,30.40
2022-09-05T14:15:15.753Z,30.50
2022-09-05T14:18:12.796Z,30.50
2022-09-05T14:21:13.005Z,30.40
2022-09-05T14:23:48.500Z,30.20
2022-09-05T14:26:24.836Z,30.00
2022-09-05T14:29:03.191Z,29.80
2022-09-05T14:37:32.727Z,29.80
2022-09-05T14:37:38.731Z,29.60
2022-09-05T14:38:07.922Z,29.50
2022-09-05T14:41:19.145Z,29.30
2022-09-05T14:44:19.154Z,29.30
2022-09-05T14:47:35.473Z,29.20
2022-09-05T14:50:18.303Z,29.20
2022-09-05T14:55:57.201Z,29.00
2022-09-05T15:02:43.897Z,29.00
2022-09-05T15:02:56.950Z,28.90
2022-09-05T15:04:44.448Z,28.80
2022-09-05T15:07:19.486Z,28.70
2022-09-05T15:11:25.577Z,28.50
2022-09-05T15:12:51.873Z,28.50
2022-09-05T15:15:28.813Z,28.40
2022-09-05T15:18:01.614Z,28.30
2022-09-05T15:20:33.407Z,28.40
2022-09-05T15:23:16.369Z,28.40
2022-09-05T15:25:48.352Z,28.30
2022-09-05T15:28:21.940Z,28.20
2022-09-05T15:30:58.099Z,28.10
2022-09-05T15:33:31.034Z,28.10
2022-09-05T15:36:01.555Z,28.00
2022-09-05T15:38:55.279Z,28.00
2022-09-05T15:41:26.395Z,28.00
2022-09-05T15:44:02.164Z,27.90
2022-09-05T15:46:49.369Z,27.90
2022-09-05T15:49:29.563Z,27.90
2022-09-05T15:52:00.199Z,27.80
2022-09-05T15:54:37.909Z,27.70
2022-09-05T15:57:17.886Z,27.70
2022-09-05T15:59:49.288Z,27.70
2022-09-05T16:02:21.909Z,27.60
2022-09-05T16:10:29.027Z,27.60
2022-09-05T16:10:37.632Z,27.60
2022-09-05T16:11:07.707Z,27.50
2022-09-05T16:13:52.918Z,27.60
2022-09-05T16:23:11.585Z,27.60
2022-09-05T16:23:24.938Z,27.50
2022-09-05T16:23:33.138Z,27.50
2022-09-05T16:25:04.249Z,27.50
2022-09-05T16:27:45.562Z,27.50
2022-09-05T16:30:22.139Z,27.50
2022-09-05T16:32:53.774Z,27.50
2022-09-05T16:35:26.171Z,27.50
2022-09-05T16:38:09.220Z,27.40
2022-09-05T16:40:40.876Z,27.20
2022-09-05T16:43:13.471Z,27.00
2022-09-05T16:45:50.912Z,26.80
2022-09-05T16:48:35.224Z,26.70
2022-09-05T16:51:15.267Z,26.50
2022-09-05T16:53:58.044Z,26.30
2022-09-05T16:56:32.137Z,26.10
2022-09-05T16:59:03.920Z,26.00
2022-09-05T17:02:06.041Z,25.90
2022-09-05T17:05:03.211Z,25.70
2022-09-05T17:07:42.224Z,25.50
2022-09-05T17:10:16.492Z,25.40
2022-09-05T17:12:45.100Z,25.30
2022-09-05T17:15:17.592Z,25.10
2022-09-05T17:18:20.192Z,24.90
2022-09-05T17:20:50.550Z,24.70
2022-09-05T17:29:15.903Z,24.30
2022-09-05T17:29:27.401Z,24.10
2022-09-05T17:29:28.324Z,24.30
2022-09-05T17:32:04.436Z,23.90
2022-09-05T17:35:17.054Z,23.80
2022-09-05T17:38:22.939Z,23.80
2022-09-05T17:41:16.269Z,23.70
2022-09-05T17:43:51.081Z,23.60
2022-09-05T17:46:23.391Z,23.70
2022-09-05T17:49:19.987Z,23.60
2022-09-05T17:52:18.429Z,23.60
2022-09-05T17:54:49.904Z,23.40
2022-09-05T17:57:45.200Z,23.30
2022-09-05T18:01:05.555Z,23.20
2022-09-05T18:04:17.863Z,23.10
2022-09-05T18:07:00.298Z,22.90
2022-09-05T18:10:15.349Z,22.70
2022-09-05T18:13:31.490Z,22.60
2022-09-05T18:16:12.000Z,22.40
2022-09-05T18:19:28.784Z,22.40
2022-09-05T18:21:49.784Z,22.40
2022-09-05T18:24:32.724Z,22.40
2022-09-05T18:27:36.451Z,22.50
2022-09-05T18:30:06.274Z,22.40
2022-09-05T18:32:45.593Z,22.50
2022-09-05T18:35:37.263Z,22.50
2022-09-05T18:38:50.902Z,22.60
2022-09-05T18:41:22.024Z,22.50
2022-09-05T18:44:12.352Z,22.40
2022-09-05T18:46:46.509Z,22.30
2022-09-05T18:50:25.334Z,22.10
2022-09-05T18:52:15.957Z,22.10
2022-09-05T18:55:31.703Z,22.10
2022-09-05T18:57:38.911Z,22.10
2022-09-05T19:00:11.564Z,22.10
2022-09-05T19:02:51.421Z,21.90
